createdAt,value
2022-10-08T00:03:46.410Z,10.10
2022-10-08T00:08:51.782Z,10.20
2022-10-08T00:13:55.357Z,9.90
2022-10-08T00:19:12.657Z,9.80
2022-10-08T00:24:18.708Z,9.80
2022-10-08T00:29:22.905Z,9.80
2022-10-08T00:34:25.604Z,9.60
2022-10-08T00:39:28.016Z,9.60
2022-10-08T00:44:56.091Z,9.60
2022-10-08T00:50:01.915Z,9.70
2022-10-08T00:55:06.884Z,9.70
2022-10-08T01:00:20.838Z,9.60
2022-10-08T01:05:33.388Z,9.50
2022-10-08T01:10:44.701Z,9.60
2022-10-08T01:15:53.647Z,9.70
2022-10-08T01:21:24.989Z,9.50
2022-10-08T01:26:33.455Z,9.50
2022-10-08T01:31:55.198Z,9.50
2022-10-08T01:36:59.456Z,9.40
2022-10-08T01:42:05.126Z,9.40
2022-10-08T01:47:13.181Z,9.50
2022-10-08T01:52:25.442Z,9.40
2022-10-08T01:57:30.876Z,9.50
2022-10-08T02:02:33.474Z,9.40
2022-10-08T02:07:38.753Z,9.30
2022-10-08T02:12:43.033Z,9.20
2022-10-08T02:18:06.415Z,9.20
2022-10-08T02:23:29.810Z,9.20
2022-10-08T02:28:35.976Z,9.20
2022-10-08T02:33:44.580Z,9.30
2022-10-08T02:38:57.613Z,9.40
2022-10-08T02:44:06.174Z,9.40
2022-10-08T02:49:18.591Z,9.20
2022-10-08T02:54:23.396Z,9.30
2022-10-08T02:59:26.706Z,9.30
2022-10-08T03:04:37.478Z,9.30
2022-10-08T03:09:43.661Z,9.40
2022-10-08T03:14:49.004Z,9.30
2022-10-08T03:19:51.935Z,9.30
2022-10-08T03:24:56.828Z,9.50
2022-10-08T03:29:59.426Z,9.60
2022-10-08T03:35:01.875Z,9.50
2022-10-08T03:40:04.791Z,9.90
2022-10-08T03:45:07.469Z,9.50
2022-10-08T03:50:10.030Z,9.50
2022-10-08T03:55:12.508Z,9.50
2022-10-08T04:00:14.970Z,9.50
2022-10-08T04:05:17.344Z,9.40
2022-10-08T04:10:19.746Z,9.50
2022-10-08T04:15:22.209Z,9.50
2022-10-08T04:20:24.702Z,9.70
2022-10-08T04:25:27.181Z,9.40
2022-10-08T04:30:30.303Z,9.50
2022-10-08T04:35:36.663Z,9.40
2022-10-08T04:40:39.110Z,9.60
2022-10-08T04:45:45.206Z,9.80
2022-10-08T04:50:47.590Z,9.60
2022-10-08T04:55:50.084Z,9.50
2022-10-08T05:00:52.596Z,9.50
2022-10-08T05:05:55.026Z,9.60
2022-10-08T05:10:57.565Z,9.60
2022-10-08T05:16:09.258Z,9.60
2022-10-08T05:21:17.332Z,9.70
2022-10-08T05:26:41.381Z,9.70
2022-10-08T05:31:47.842Z,9.80
2022-10-08T05:36:50.379Z,9.70
2022-10-08T05:41:54.166Z,9.90
2022-10-08T05:46:56.546Z,10.00
2022-10-08T05:51:59.183Z,10.10
2022-10-08T05:57:01.592Z,10.10
2022-10-08T06:02:04.362Z,10.40
2022-10-08T06:07:06.786Z,10.50
2022-10-08T06:12:10.078Z,10.60
2022-10-08T06:17:12.589Z,10.70
2022-10-08T06:22:15.699Z,10.80
2022-10-08T06:27:18.300Z,11.00
2022-10-08T06:32:21.153Z,11.20
2022-10-08T06:37:29.872Z,11.30
2022-10-08T06:42:33.284Z,11.40
2022-10-08T06:47:36.313Z,11.50
2022-10-08T06:52:39.796Z,11.50
2022-10-08T06:57:45.357Z,11.60
2022-10-08T07:02:48.167Z,11.60
2022-10-08T07:07:50.908Z,11.70
2022-10-08T07:12:53.351Z,11.80
2022-10-08T07:17:55.770Z,12.10
2022-10-08T07:22:58.167Z,12.20
2022-10-08T07:28:01.034Z,12.50
2022-10-08T07:33:06.465Z,12.90
2022-10-08T07:38:08.866Z,13.10
2022-10-08T07:43:11.504Z,13.20
2022-10-08T07:48:14.309Z,13.70
2022-10-08T07:53:17.078Z,14.00
2022-10-08T07:58:19.521Z,14.10
2022-10-08T08:03:21.897Z,14.20
2022-10-08T08:08:24.930Z,14.20
2022-10-08T08:13:32.962Z,14.30
2022-10-08T08:18:40.965Z,14.70
2022-10-08T08:23:52.334Z,14.90
2022-10-08T08:28:56.923Z,14.90
2022-10-08T08:34:02.216Z,15.00
2022-10-08T08:39:06.462Z,15.30
2022-10-08T08:44:16.848Z,15.50
2022-10-08T08:49:42.404Z,15.70
2022-10-08T08:54:53.394Z,15.70
2022-10-08T09:00:00.213Z,15.60
2022-10-08T09:05:12.649Z,15.40
2022-10-08T09:10:21.256Z,15.50
2022-10-08T09:15:36.071Z,15.60
2022-10-08T09:20:40.447Z,15.80
2022-10-08T09:25:48.140Z,15.60
2022-10-08T09:30:50.671Z,16.00
2022-10-08T09:35:54.298Z,15.90
2022-10-08T09:41:01.611Z,15.80
2022-10-08T09:46:12.093Z,15.60
2022-10-08T09:51:17.206Z,15.40
2022-10-08T09:56:28.126Z,15.70
2022-10-08T10:01:31.731Z,16.00
2022-10-08T10:06:39.952Z,16.10
2022-10-08T10:11:48.664Z,16.50
2022-10-08T10:17:03.216Z,16.60
2022-10-08T10:22:13.256Z,16.60
2022-10-08T10:27:41.759Z,16.70
2022-10-08T10:32:54.300Z,16.70
2022-10-08T10:37:59.895Z,16.80
2022-10-08T10:43:18.050Z,17.10
2022-10-08T10:48:20.473Z,17.00
2022-10-08T10:53:29.009Z,17.00
2022-10-08T10:58:45.566Z,16.80
2022-10-08T11:03:57.057Z,16.70
2022-10-08T11:09:33.768Z,16.90
2022-10-08T11:15:13.971Z,16.70
2022-10-08T11:20:42.478Z,16.60
2022-10-08T11:26:20.552Z,16.60
2022-10-08T11:31:39.968Z,16.60
2022-10-08T11:36:55.635Z,16.60
2022-10-08T11:42:13.016Z,16.70
2022-10-08T11:47:43.391Z,16.70
2022-10-08T11:52:46.180Z,16.70
2022-10-08T11:58:09.353Z,16.90
2022-10-08T12:03:27.158Z,17.10
2022-10-08T12:08:52.794Z,17.40
2022-10-08T12:14:14.485Z,17.60
2022-10-08T12:19:35.401Z,17.60
2022-10-08T12:24:38.028Z,17.50
2022-10-08T12:30:16.904Z,17.50
2022-10-08T12:35:28.044Z,17.60
2022-10-08T12:40:53.031Z,17.50
2022-10-08T12:46:05.645Z,17.30
2022-10-08T12:51:24.273Z,17.20
2022-10-08T12:56:29.489Z,17.10
2022-10-08T13:01:33.499Z,17.10
2022-10-08T13:06:36.068Z,17.10
2022-10-08T13:11:38.555Z,17.30
2022-10-08T13:16:48.157Z,17.30
2022-10-08T13:21:55.718Z,17.10
2022-10-08T13:26:58.546Z,17.10
2022-10-08T13:32:03.564Z,17.10
2022-10-08T13:37:25.637Z,17.00
2022-10-08T13:42:34.687Z,17.00
2022-10-08T13:47:37.148Z,16.80
2022-10-08T13:52:48.208Z,16.80
2022-10-08T13:57:50.817Z,16.70
2022-10-08T14:02:53.742Z,16.70
2022-10-08T14:08:03.104Z,16.60
2022-10-08T14:13:05.514Z,16.70
2022-10-08T14:18:08.228Z,16.70
2022-10-08T14:23:13.684Z,16.50
2022-10-08T14:28:16.520Z,16.40
2022-10-08T14:33:19.096Z,16.40
2022-10-08T14:38:25.126Z,16.40
2022-10-08T14:43:27.871Z,16.40
2022-10-08T14:48:30.352Z,16.40
2022-10-08T14:53:32.818Z,16.60
2022-10-08T14:58:35.650Z,16.60
2022-10-08T15:03:38.460Z,16.40
2022-10-08T15:08:41.060Z,16.30
2022-10-08T15:13:43.675Z,16.10
2022-10-08T15:18:46.351Z,15.90
2022-10-08T15:23:58.134Z,15.90
2022-10-08T15:29:01.141Z,15.90
2022-10-08T15:34:03.568Z,15.70
2022-10-08T15:39:08.846Z,15.60
2022-10-08T15:44:29.322Z,15.50
2022-10-08T15:49:40.907Z,15.50
2022-10-08T15:54:44.247Z,15.40
2022-10-08T15:59:46.788Z,15.40
2022-10-08T16:04:52.172Z,15.30
2022-10-08T16:09:54.651Z,15.20
2022-10-08T16:14:58.927Z,15.20
2022-10-08T16:20:01.455Z,15.20
2022-10-08T16:25:04.324Z,15.10
2022-10-08T16:30:07.537Z,15.00
2022-10-08T16:35:10.107Z,14.90
2022-10-08T16:40:12.614Z,14.70
2022-10-08T16:45:15.142Z,14.40
2022-10-08T16:50:18.150Z,14.30
2022-10-08T16:55:20.607Z,14.10
2022-10-08T17:00:23.112Z,14.00
2022-10-08T17:05:25.655Z,13.80
2022-10-08T17:10:29.381Z,13.80
2022-10-08T17:15:31.765Z,13.70
2022-10-08T17:20:34.211Z,13.70
2022-10-08T17:25:36.924Z,13.60
2022-10-08T17:30:39.501Z,13.60
2022-10-08T17:35:41.980Z,13.50
2022-10-08T17:40:44.475Z,13.30
2022-10-08T17:45:46.941Z,13.30
2022-10-08T17:50:50.131Z,13.20
2022-10-08T17:56:03.002Z,13.10
2022-10-08T18:01:33.039Z,12.90
2022-10-08T18:06:38.654Z,12.90
2022-10-08T18:11:44.907Z,12.70
2022-10-08T18:16:48.730Z,12.50
2022-10-08T18:21:51.330Z,12.40
2022-10-08T18:26:53.847Z,12.30
2022-10-08T18:31:56.256Z,12.20
2022-10-08T18:36:58.676Z,12.10
2022-10-08T18:42:01.118Z,11.90
2022-10-08T18:47:05.485Z,11.80
2022-10-08T18:52:08.266Z,11.70
2022-10-08T18:57:10.724Z,11.70
2022-10-08T19:02:13.334Z,11.60
2022-10-08T19:07:15.973Z,11.50
2022-10-08T19:12:18.381Z,11.40
2022-10-08T19:17:20.820Z,11.30
2022-10-08T19:22:23.263Z,11.30
2022-10-08T19:27:25.718Z,11.30
2022-10-08T19:32:28.160Z,11.30
2022-10-08T19:37:30.964Z,11.20
2022-10-08T19:42:33.398Z,11.30
2022-10-08T19:47:36.056Z,11.10
2022-10-08T19:52:38.521Z,10.80
2022-10-08T19:57:40.932Z,11.00
2022-10-08T20:02:43.402Z,11.00
2022-10-08T20:07:46.026Z,10.90
2022-10-08T20:12:48.769Z,10.80
2022-10-08T20:18:00.605Z,10.80
2022-10-08T20:23:03.155Z,10.80
2022-10-08T20:28:05.710Z,10.70
2022-10-08T20:33:08.216Z,10.70
2022-10-08T20:38:10.643Z,10.70
2022-10-08T20:43:13.055Z,10.60
2022-10-08T20:48:15.554Z,10.90
2022-10-08T20:53:18.058Z,10.50
2022-10-08T20:58:20.714Z,10.80
2022-10-08T21:03:23.285Z,10.40
2022-10-08T21:08:25.962Z,10.40
2022-10-08T21:13:29.298Z,10.30
2022-10-08T21:18:31.929Z,10.30
2022-10-08T21:23:35.142Z,10.50
2022-10-08T21:28:38.413Z,10.10
2022-10-08T21:33:43.404Z,10.00
2022-10-08T21:38:46.494Z,10.10
2022-10-08T21:43:50.113Z,9.80
2022-10-08T21:49:16.951Z,9.80
2022-10-08T21:54:19.342Z,9.70
2022-10-08T21:59:21.823Z,9.70
2022-10-08T22:04:25.475Z,9.80
2022-10-08T22:09:31.074Z,9.60
2022-10-08T22:14:33.572Z,9.70
2022-10-08T22:19:36.770Z,9.50
2022-10-08T22:24:39.285Z,9.40
2022-10-08T22:29:41.766Z,9.30
2022-10-08T22:34:44.197Z,9.30
2022-10-08T22:39:46.673Z,9.20
2022-10-08T22:44:58.827Z,9.10
2022-10-08T22:50:01.331Z,9.10
2022-10-08T22:55:04.043Z,9.30
2022-10-08T23:00:07.910Z,9.00
2022-10-08T23:05:10.650Z,9.00
2022-10-08T23:10:13.130Z,9.00
2022-10-08T23:15:15.781Z,9.00
2022-10-08T23:20:18.303Z,8.80
2022-10-08T23:25:20.769Z,9.20
2022-10-08T23:30:42.102Z,8.80
2022-10-08T23:35:53.055Z,8.90
2022-10-08T23:40:59.135Z,8.80
2022-10-08T23:46:01.991Z,8.70
2022-10-08T23:51:05.633Z,8.70
2022-10-08T23:56:09.007Z,8.70
